sensor_id;sensor_type;location;lat;lon;timestamp;pressure;altitude;pressure_sealevel;temperature
49841;BMP280;35738;49.890;5.930;2023-08-24T00:01:29;96213.03;;;25.58
49841;BMP280;35738;49.890;5.930;2023-08-24T00:03:57;96213.78;;;25.62
49841;BMP280;35738;49.890;5.930;2023-08-24T00:06:23;96213.34;;;25.78
49841;BMP280;35738;49.890;5.930;2023-08-24T00:08:50;96212.53;;;25.71
49841;BMP280;35738;49.890;5.930;2023-08-24T00:11:16;96205.59;;;25.68
49841;BMP280;35738;49.890;5.930;2023-08-24T00:13:43;96201.66;;;25.81
49841;BMP280;35738;49.890;5.930;2023-08-24T00:16:18;96204.69;;;25.52
49841;BMP280;35738;49.890;5.930;2023-08-24T00:18:45;96208.41;;;25.27
49841;BMP280;35738;49.890;5.930;2023-08-24T00:21:15;96202.91;;;24.87
49841;BMP280;35738;49.890;5.930;2023-08-24T00:23:49;96202.72;;;25.17
49841;BMP280;35738;49.890;5.930;2023-08-24T00:26:16;96202.09;;;25.20
49841;BMP280;35738;49.890;5.930;2023-08-24T00:28:45;96204.34;;;24.54
49841;BMP280;35738;49.890;5.930;2023-08-24T00:31:12;96194.28;;;24.31
49841;BMP280;35738;49.890;5.930;2023-08-24T00:33:38;96181.94;;;24.01
49841;BMP280;35738;49.890;5.930;2023-08-24T00:36:06;96186.63;;;23.63
49841;BMP280;35738;49.890;5.930;2023-08-24T00:38:32;96164.81;;;24.04
49841;BMP280;35738;49.890;5.930;2023-08-24T00:40:59;96165.00;;;23.51
49841;BMP280;35738;49.890;5.930;2023-08-24T00:43:26;96158.63;;;24.04
49841;BMP280;35738;49.890;5.930;2023-08-24T00:45:55;96155.31;;;23.78
49841;BMP280;35738;49.890;5.930;2023-08-24T00:48:22;96144.41;;;23.82
49841;BMP280;35738;49.890;5.930;2023-08-24T00:50:52;96144.63;;;23.60
49841;BMP280;35738;49.890;5.930;2023-08-24T00:53:20;96137.28;;;23.39
49841;BMP280;35738;49.890;5.930;2023-08-24T00:55:47;96146.75;;;23.34
49841;BMP280;35738;49.890;5.930;2023-08-24T00:58:14;96139.75;;;23.27
49841;BMP280;35738;49.890;5.930;2023-08-24T01:00:41;96134.00;;;22.89
49841;BMP280;35738;49.890;5.930;2023-08-24T01:03:08;96132.94;;;23.30
49841;BMP280;35738;49.890;5.930;2023-08-24T01:05:34;96132.91;;;23.00
49841;BMP280;35738;49.890;5.930;2023-08-24T01:08:01;96118.88;;;22.88
49841;BMP280;35738;49.890;5.930;2023-08-24T01:10:39;96127.59;;;22.04
49841;BMP280;35738;49.890;5.930;2023-08-24T01:13:09;96127.59;;;22.04
49841;BMP280;35738;49.890;5.930;2023-08-24T01:15:40;96118.22;;;21.89
49841;BMP280;35738;49.890;5.930;2023-08-24T01:18:12;96107.41;;;22.19
49841;BMP280;35738;49.890;5.930;2023-08-24T01:20:42;96103.34;;;22.99
49841;BMP280;35738;49.890;5.930;2023-08-24T01:25:51;96097.50;;;22.32
49841;BMP280;35738;49.890;5.930;2023-08-24T01:28:20;96097.22;;;21.98
49841;BMP280;35738;49.890;5.930;2023-08-24T01:30:48;96082.38;;;22.31
49841;BMP280;35738;49.890;5.930;2023-08-24T01:33:14;96081.19;;;21.65
49841;BMP280;35738;49.890;5.930;2023-08-24T01:35:41;96084.72;;;22.68
49841;BMP280;35738;49.890;5.930;2023-08-24T01:38:07;96071.31;;;22.52
49841;BMP280;35738;49.890;5.930;2023-08-24T01:41:18;96064.44;;;21.78
49841;BMP280;35738;49.890;5.930;2023-08-24T01:43:49;96057.34;;;21.46
49841;BMP280;35738;49.890;5.930;2023-08-24T01:46:20;96063.66;;;22.23
49841;BMP280;35738;49.890;5.930;2023-08-24T01:48:47;96063.44;;;22.15
49841;BMP280;35738;49.890;5.930;2023-08-24T01:51:15;96059.53;;;22.22
49841;BMP280;35738;49.890;5.930;2023-08-24T01:53:42;96052.69;;;21.50
49841;BMP280;35738;49.890;5.930;2023-08-24T01:56:12;96050.41;;;21.00
49841;BMP280;35738;49.890;5.930;2023-08-24T01:58:39;96034.19;;;20.84
49841;BMP280;35738;49.890;5.930;2023-08-24T02:01:07;96023.72;;;20.78
49841;BMP280;35738;49.890;5.930;2023-08-24T02:03:34;96020.38;;;20.80
49841;BMP280;35738;49.890;5.930;2023-08-24T02:06:01;96031.75;;;21.16
49841;BMP280;35738;49.890;5.930;2023-08-24T02:08:27;96027.25;;;21.24
49841;BMP280;35738;49.890;5.930;2023-08-24T02:10:54;96032.97;;;21.32
49841;BMP280;35738;49.890;5.930;2023-08-24T02:13:20;96035.75;;;21.34
49841;BMP280;35738;49.890;5.930;2023-08-24T02:15:46;96036.63;;;21.41
49841;BMP280;35738;49.890;5.930;2023-08-24T02:18:13;96033.44;;;22.21
49841;BMP280;35738;49.890;5.930;2023-08-24T02:20:40;96034.91;;;22.52
49841;BMP280;35738;49.890;5.930;2023-08-24T02:23:06;96036.94;;;23.08
49841;BMP280;35738;49.890;5.930;2023-08-24T02:25:33;96031.16;;;22.94
49841;BMP280;35738;49.890;5.930;2023-08-24T02:28:02;96041.84;;;22.82
49841;BMP280;35738;49.890;5.930;2023-08-24T02:30:29;96031.44;;;22.77
49841;BMP280;35738;49.890;5.930;2023-08-24T02:32:55;96026.31;;;22.93
49841;BMP280;35738;49.890;5.930;2023-08-24T02:35:22;96019.97;;;23.16
49841;BMP280;35738;49.890;5.930;2023-08-24T02:37:49;96021.22;;;22.81
49841;BMP280;35738;49.890;5.930;2023-08-24T02:40:16;96030.25;;;23.47
49841;BMP280;35738;49.890;5.930;2023-08-24T02:42:42;96043.38;;;23.50
49841;BMP280;35738;49.890;5.930;2023-08-24T02:45:09;96049.34;;;23.73
49841;BMP280;35738;49.890;5.930;2023-08-24T02:47:35;96047.44;;;24.54
49841;BMP280;35738;49.890;5.930;2023-08-24T02:50:04;96058.09;;;24.74
49841;BMP280;35738;49.890;5.930;2023-08-24T02:52:32;96061.59;;;25.22
49841;BMP280;35738;49.890;5.930;2023-08-24T02:54:58;96070.09;;;25.40
49841;BMP280;35738;49.890;5.930;2023-08-24T02:57:25;96093.75;;;25.10
49841;BMP280;35738;49.890;5.930;2023-08-24T02:59:51;96113.91;;;23.70
49841;BMP280;35738;49.890;5.930;2023-08-24T03:02:18;96121.31;;;23.63
49841;BMP280;35738;49.890;5.930;2023-08-24T03:04:44;96142.41;;;23.25
49841;BMP280;35738;49.890;5.930;2023-08-24T03:07:11;96170.03;;;22.50
49841;BMP280;35738;49.890;5.930;2023-08-24T03:09:38;96187.41;;;21.88
49841;BMP280;35738;49.890;5.930;2023-08-24T03:12:04;96201.72;;;22.08
49841;BMP280;35738;49.890;5.930;2023-08-24T03:14:31;96205.75;;;22.05
49841;BMP280;35738;49.890;5.930;2023-08-24T03:16:57;96231.56;;;21.55
49841;BMP280;35738;49.890;5.930;2023-08-24T03:19:23;96234.53;;;21.82
49841;BMP280;35738;49.890;5.930;2023-08-24T03:21:50;96219.94;;;21.76
49841;BMP280;35738;49.890;5.930;2023-08-24T03:24:16;96219.56;;;21.64
49841;BMP280;35738;49.890;5.930;2023-08-24T03:26:43;96216.06;;;22.06
49841;BMP280;35738;49.890;5.930;2023-08-24T03:29:09;96218.03;;;21.80
49841;BMP280;35738;49.890;5.930;2023-08-24T03:31:36;96218.91;;;21.87
49841;BMP280;35738;49.890;5.930;2023-08-24T03:34:02;96205.69;;;22.50
49841;BMP280;35738;49.890;5.930;2023-08-24T03:36:30;96208.31;;;22.23
49841;BMP280;35738;49.890;5.930;2023-08-24T03:38:56;96211.34;;;22.09
49841;BMP280;35738;49.890;5.930;2023-08-24T03:41:23;96216.78;;;22.54
49841;BMP280;35738;49.890;5.930;2023-08-24T03:43:49;96197.09;;;22.87
49841;BMP280;35738;49.890;5.930;2023-08-24T03:46:16;96192.84;;;23.37
49841;BMP280;35738;49.890;5.930;2023-08-24T03:48:42;96147.94;;;22.46
49841;BMP280;35738;49.890;5.930;2023-08-24T03:51:08;96126.31;;;21.62
49841;BMP280;35738;49.890;5.930;2023-08-24T03:53:35;96128.78;;;20.69
49841;BMP280;35738;49.890;5.930;2023-08-24T03:56:01;96124.31;;;21.00
49841;BMP280;35738;49.890;5.930;2023-08-24T03:58:28;96137.41;;;20.81
49841;BMP280;35738;49.890;5.930;2023-08-24T04:00:55;96146.66;;;21.78
49841;BMP280;35738;49.890;5.930;2023-08-24T04:03:21;96161.06;;;22.24
49841;BMP280;35738;49.890;5.930;2023-08-24T04:05:48;96158.78;;;22.16
49841;BMP280;35738;49.890;5.930;2023-08-24T04:08:14;96147.88;;;22.18
49841;BMP280;35738;49.890;5.930;2023-08-24T04:10:41;96168.31;;;22.39
49841;BMP280;35738;49.890;5.930;2023-08-24T04:13:07;96178.94;;;23.02
49841;BMP280;35738;49.890;5.930;2023-08-24T04:15:34;96188.69;;;22.81
49841;BMP280;35738;49.890;5.930;2023-08-24T04:18:00;96184.75;;;22.13
49841;BMP280;35738;49.890;5.930;2023-08-24T04:20:27;96171.28;;;21.55
49841;BMP280;35738;49.890;5.930;2023-08-24T04:22:54;96167.91;;;21.35
49841;BMP280;35738;49.890;5.930;2023-08-24T04:25:20;96172.81;;;21.17
49841;BMP280;35738;49.890;5.930;2023-08-24T04:27:47;96158.22;;;21.32
49841;BMP280;35738;49.890;5.930;2023-08-24T04:30:14;96140.28;;;20.46
49841;BMP280;35738;49.890;5.930;2023-08-24T04:32:40;96114.16;;;19.69
49841;BMP280;35738;49.890;5.930;2023-08-24T04:35:07;96085.19;;;19.79
49841;BMP280;35738;49.890;5.930;2023-08-24T04:37:34;96082.28;;;19.93
49841;BMP280;35738;49.890;5.930;2023-08-24T04:40:00;96094.19;;;20.78
49841;BMP280;35738;49.890;5.930;2023-08-24T04:42:27;96096.75;;;20.93
49841;BMP280;35738;49.890;5.930;2023-08-24T04:44:53;96101.16;;;20.61
49841;BMP280;35738;49.890;5.930;2023-08-24T04:47:19;96120.59;;;21.11
49841;BMP280;35738;49.890;5.930;2023-08-24T04:49:46;96137.50;;;20.83
49841;BMP280;35738;49.890;5.930;2023-08-24T04:52:12;96122.69;;;20.51
49841;BMP280;35738;49.890;5.930;2023-08-24T04:54:39;96104.34;;;20.75
49841;BMP280;35738;49.890;5.930;2023-08-24T04:57:05;96075.91;;;19.87
49841;BMP280;35738;49.890;5.930;2023-08-24T04:59:32;96064.59;;;20.14
49841;BMP280;35738;49.890;5.930;2023-08-24T05:01:58;96089.50;;;20.22
49841;BMP280;35738;49.890;5.930;2023-08-24T05:04:25;96074.34;;;20.19
49841;BMP280;35738;49.890;5.930;2023-08-24T05:06:51;96044.63;;;20.29
49841;BMP280;35738;49.890;5.930;2023-08-24T05:09:18;96031.31;;;19.45
49841;BMP280;35738;49.890;5.930;2023-08-24T05:11:44;96031.72;;;19.55
49841;BMP280;35738;49.890;5.930;2023-08-24T05:14:10;96045.72;;;18.95
49841;BMP280;35738;49.890;5.930;2023-08-24T05:16:37;96038.97;;;19.31
49841;BMP280;35738;49.890;5.930;2023-08-24T05:19:04;96071.16;;;19.87
49841;BMP280;35738;49.890;5.930;2023-08-24T05:21:31;96128.22;;;20.53
49841;BMP280;35738;49.890;5.930;2023-08-24T05:23:57;96151.53;;;21.80
49841;BMP280;35738;49.890;5.930;2023-08-24T05:26:23;96122.38;;;21.45
49841;BMP280;35738;49.890;5.930;2023-08-24T05:28:52;96092.91;;;22.93
49841;BMP280;35738;49.890;5.930;2023-08-24T05:31:18;96074.13;;;22.05
49841;BMP280;35738;49.890;5.930;2023-08-24T05:33:47;96072.94;;;20.76
49841;BMP280;35738;49.890;5.930;2023-08-24T05:36:13;96073.88;;;20.24
49841;BMP280;35738;49.890;5.930;2023-08-24T05:38:40;96073.88;;;20.24
49841;BMP280;35738;49.890;5.930;2023-08-24T05:41:30;96046.31;;;19.99
49841;BMP280;35738;49.890;5.930;2023-08-24T05:43:57;95998.44;;;19.98
49841;BMP280;35738;49.890;5.930;2023-08-24T05:46:24;95952.66;;;19.59
49841;BMP280;35738;49.890;5.930;2023-08-24T05:48:51;95949.88;;;19.76
49841;BMP280;35738;49.890;5.930;2023-08-24T05:51:17;95966.34;;;19.98
49841;BMP280;35738;49.890;5.930;2023-08-24T05:53:43;95977.13;;;20.33
49841;BMP280;35738;49.890;5.930;2023-08-24T05:56:10;95974.53;;;19.98
49841;BMP280;35738;49.890;5.930;2023-08-24T05:58:36;95967.94;;;19.86
49841;BMP280;35738;49.890;5.930;2023-08-24T06:01:03;95958.03;;;19.57
49841;BMP280;35738;49.890;5.930;2023-08-24T06:03:29;95940.38;;;19.60
49841;BMP280;35738;49.890;5.930;2023-08-24T06:06:01;95929.06;;;19.67
49841;BMP280;35738;49.890;5.930;2023-08-24T06:08:28;95923.59;;;19.67
49841;BMP280;35738;49.890;5.930;2023-08-24T06:10:55;95904.06;;;19.75
49841;BMP280;35738;49.890;5.930;2023-08-24T06:13:21;95892.94;;;19.89
49841;BMP280;35738;49.890;5.930;2023-08-24T06:15:47;95893.72;;;19.93
49841;BMP280;35738;49.890;5.930;2023-08-24T06:18:14;95886.44;;;19.78
49841;BMP280;35738;49.890;5.930;2023-08-24T06:20:40;95887.44;;;20.08
49841;BMP280;35738;49.890;5.930;2023-08-24T06:23:07;95877.53;;;20.62
49841;BMP280;35738;49.890;5.930;2023-08-24T06:25:35;95872.00;;;20.60
49841;BMP280;35738;49.890;5.930;2023-08-24T06:28:01;95882.53;;;21.64
49841;BMP280;35738;49.890;5.930;2023-08-24T06:30:30;95888.31;;;22.31
49841;BMP280;35738;49.890;5.930;2023-08-24T06:33:03;95875.81;;;22.24
49841;BMP280;35738;49.890;5.930;2023-08-24T06:35:30;95884.16;;;21.75
49841;BMP280;35738;49.890;5.930;2023-08-24T06:37:57;95884.75;;;21.71
49841;BMP280;35738;49.890;5.930;2023-08-24T06:40:23;95871.44;;;21.60
49841;BMP280;35738;49.890;5.930;2023-08-24T06:42:50;95877.75;;;21.15
49841;BMP280;35738;49.890;5.930;2023-08-24T06:45:16;95891.28;;;21.35
49841;BMP280;35738;49.890;5.930;2023-08-24T06:47:44;95895.66;;;22.23
49841;BMP280;35738;49.890;5.930;2023-08-24T06:50:11;95887.00;;;21.79
49841;BMP280;35738;49.890;5.930;2023-08-24T06:52:38;95888.78;;;21.94
49841;BMP280;35738;49.890;5.930;2023-08-24T06:55:04;95876.66;;;21.50
49841;BMP280;35738;49.890;5.930;2023-08-24T06:57:31;95881.59;;;21.55
49841;BMP280;35738;49.890;5.930;2023-08-24T06:59:57;95881.63;;;21.32
49841;BMP280;35738;49.890;5.930;2023-08-24T07:02:24;95885.66;;;21.29
49841;BMP280;35738;49.890;5.930;2023-08-24T07:04:50;95889.09;;;21.55
49841;BMP280;35738;49.890;5.930;2023-08-24T07:07:17;95875.22;;;21.00
49841;BMP280;35738;49.890;5.930;2023-08-24T07:09:43;95889.50;;;21.43
49841;BMP280;35738;49.890;5.930;2023-08-24T07:12:09;95894.09;;;22.15
49841;BMP280;35738;49.890;5.930;2023-08-24T07:14:36;95892.88;;;22.21
49841;BMP280;35738;49.890;5.930;2023-08-24T07:17:03;95891.00;;;22.29
49841;BMP280;35738;49.890;5.930;2023-08-24T07:19:29;95893.34;;;22.70
49841;BMP280;35738;49.890;5.930;2023-08-24T07:21:55;95885.34;;;22.80
49841;BMP280;35738;49.890;5.930;2023-08-24T07:24:22;95884.44;;;22.42
49841;BMP280;35738;49.890;5.930;2023-08-24T07:27:09;95869.63;;;22.53
49841;BMP280;35738;49.890;5.930;2023-08-24T07:29:35;95875.84;;;22.87
49841;BMP280;35738;49.890;5.930;2023-08-24T07:32:02;95870.50;;;22.93
49841;BMP280;35738;49.890;5.930;2023-08-24T07:34:29;95861.06;;;23.02
49841;BMP280;35738;49.890;5.930;2023-08-24T07:36:56;95869.88;;;23.30
49841;BMP280;35738;49.890;5.930;2023-08-24T07:39:22;95871.94;;;22.96
49841;BMP280;35738;49.890;5.930;2023-08-24T07:41:48;95874.19;;;23.06
49841;BMP280;35738;49.890;5.930;2023-08-24T07:44:15;95879.09;;;23.11
49841;BMP280;35738;49.890;5.930;2023-08-24T07:46:41;95874.91;;;23.08
49841;BMP280;35738;49.890;5.930;2023-08-24T07:49:08;95873.69;;;23.13
49841;BMP280;35738;49.890;5.930;2023-08-24T07:51:34;95886.41;;;23.34
49841;BMP280;35738;49.890;5.930;2023-08-24T07:54:01;95886.28;;;23.26
49841;BMP280;35738;49.890;5.930;2023-08-24T07:56:27;95883.69;;;24.10
49841;BMP280;35738;49.890;5.930;2023-08-24T07:58:54;95888.22;;;23.95
49841;BMP280;35738;49.890;5.930;2023-08-24T08:01:20;95882.91;;;23.66
49841;BMP280;35738;49.890;5.930;2023-08-24T08:03:47;95901.78;;;23.85
49841;BMP280;35738;49.890;5.930;2023-08-24T08:06:13;95899.47;;;24.55
49841;BMP280;35738;49.890;5.930;2023-08-24T08:08:39;95891.38;;;23.42
49841;BMP280;35738;49.890;5.930;2023-08-24T08:11:06;95896.03;;;24.52
49841;BMP280;35738;49.890;5.930;2023-08-24T08:13:32;95888.16;;;23.53
49841;BMP280;35738;49.890;5.930;2023-08-24T08:16:06;95899.50;;;24.13
49841;BMP280;35738;49.890;5.930;2023-08-24T08:18:34;95889.13;;;24.08
49841;BMP280;35738;49.890;5.930;2023-08-24T08:21:08;95890.59;;;24.13
49841;BMP280;35738;49.890;5.930;2023-08-24T08:23:35;95893.91;;;24.51
49841;BMP280;35738;49.890;5.930;2023-08-24T08:26:02;95882.44;;;24.19
49841;BMP280;35738;49.890;5.930;2023-08-24T08:28:29;95882.44;;;24.19
49841;BMP280;35738;49.890;5.930;2023-08-24T08:30:56;95889.69;;;24.44
49841;BMP280;35738;49.890;5.930;2023-08-24T08:33:23;95893.56;;;24.74
49841;BMP280;35738;49.890;5.930;2023-08-24T08:35:50;95880.59;;;25.41
49841;BMP280;35738;49.890;5.930;2023-08-24T08:38:16;95884.16;;;25.53
49841;BMP280;35738;49.890;5.930;2023-08-24T08:40:43;95888.31;;;25.54
49841;BMP280;35738;49.890;5.930;2023-08-24T08:43:12;95887.88;;;25.14
49841;BMP280;35738;49.890;5.930;2023-08-24T08:45:38;95873.84;;;24.94
49841;BMP280;35738;49.890;5.930;2023-08-24T08:48:06;95863.50;;;25.52
49841;BMP280;35738;49.890;5.930;2023-08-24T08:50:34;95857.78;;;25.32
49841;BMP280;35738;49.890;5.930;2023-08-24T08:53:01;95849.88;;;25.05
49841;BMP280;35738;49.890;5.930;2023-08-24T08:55:28;95847.41;;;24.73
49841;BMP280;35738;49.890;5.930;2023-08-24T08:57:58;95850.81;;;25.27
49841;BMP280;35738;49.890;5.930;2023-08-24T09:00:25;95844.78;;;24.83
49841;BMP280;35738;49.890;5.930;2023-08-24T09:02:53;95840.41;;;24.64
49841;BMP280;35738;49.890;5.930;2023-08-24T09:05:20;95842.31;;;25.05
49841;BMP280;35738;49.890;5.930;2023-08-24T09:07:47;95848.69;;;25.22
49841;BMP280;35738;49.890;5.930;2023-08-24T09:10:14;95853.91;;;25.61
49841;BMP280;35738;49.890;5.930;2023-08-24T09:12:41;95861.66;;;25.77
49841;BMP280;35738;49.890;5.930;2023-08-24T09:15:08;95859.66;;;25.89
49841;BMP280;35738;49.890;5.930;2023-08-24T09:17:35;95867.31;;;25.95
49841;BMP280;35738;49.890;5.930;2023-08-24T09:20:06;95859.25;;;25.41
49841;BMP280;35738;49.890;5.930;2023-08-24T09:22:37;95854.34;;;26.13
49841;BMP280;35738;49.890;5.930;2023-08-24T09:25:10;95855.50;;;27.10
49841;BMP280;35738;49.890;5.930;2023-08-24T09:27:37;95840.13;;;25.63
49841;BMP280;35738;49.890;5.930;2023-08-24T09:30:04;95849.72;;;25.54
49841;BMP280;35738;49.890;5.930;2023-08-24T09:32:32;95842.25;;;25.65
49841;BMP280;35738;49.890;5.930;2023-08-24T09:35:08;95832.19;;;26.01
49841;BMP280;35738;49.890;5.930;2023-08-24T09:37:35;95833.91;;;25.63
49841;BMP280;35738;49.890;5.930;2023-08-24T09:40:06;95829.81;;;25.64
49841;BMP280;35738;49.890;5.930;2023-08-24T09:42:42;95829.88;;;25.72
49841;BMP280;35738;49.890;5.930;2023-08-24T09:45:13;95830.63;;;25.80
49841;BMP280;35738;49.890;5.930;2023-08-24T09:47:51;95843.31;;;26.11
49841;BMP280;35738;49.890;5.930;2023-08-24T09:50:21;95839.69;;;25.91
49841;BMP280;35738;49.890;5.930;2023-08-24T09:52:50;95838.06;;;25.66
49841;BMP280;35738;49.890;5.930;2023-08-24T09:55:20;95835.06;;;26.19
49841;BMP280;35738;49.890;5.930;2023-08-24T09:57:52;95830.88;;;26.08
49841;BMP280;35738;49.890;5.930;2023-08-24T10:00:20;95842.72;;;26.29
49841;BMP280;35738;49.890;5.930;2023-08-24T10:02:50;95841.28;;;26.20
49841;BMP280;35738;49.890;5.930;2023-08-24T10:05:20;95864.47;;;26.95
49841;BMP280;35738;49.890;5.930;2023-08-24T10:07:52;95857.47;;;26.82
49841;BMP280;35738;49.890;5.930;2023-08-24T10:10:21;95851.13;;;26.51
49841;BMP280;35738;49.890;5.930;2023-08-24T10:12:51;95858.75;;;26.56
49841;BMP280;35738;49.890;5.930;2023-08-24T10:15:18;95856.59;;;26.47
49841;BMP280;35738;49.890;5.930;2023-08-24T10:17:45;95848.47;;;25.71
49841;BMP280;35738;49.890;5.930;2023-08-24T10:20:14;95843.00;;;25.77
49841;BMP280;35738;49.890;5.930;2023-08-24T10:22:41;95847.22;;;25.84
49841;BMP280;35738;49.890;5.930;2023-08-24T10:25:08;95849.38;;;25.98
49841;BMP280;35738;49.890;5.930;2023-08-24T10:27:39;95849.81;;;25.66
49841;BMP280;35738;49.890;5.930;2023-08-24T10:30:11;95856.56;;;26.35
49841;BMP280;35738;49.890;5.930;2023-08-24T10:32:40;95861.22;;;26.12
49841;BMP280;35738;49.890;5.930;2023-08-24T10:35:08;95861.63;;;25.75
49841;BMP280;35738;49.890;5.930;2023-08-24T10:37:36;95852.91;;;25.29
49841;BMP280;35738;49.890;5.930;2023-08-24T10:40:04;95855.97;;;25.59
49841;BMP280;35738;49.890;5.930;2023-08-24T10:42:44;95848.28;;;25.47
49841;BMP280;35738;49.890;5.930;2023-08-24T10:45:13;95829.75;;;24.92
49841;BMP280;35738;49.890;5.930;2023-08-24T10:47:45;95825.03;;;23.99
49841;BMP280;35738;49.890;5.930;2023-08-24T10:50:13;95810.69;;;23.23
49841;BMP280;35738;49.890;5.930;2023-08-24T10:52:43;95810.88;;;22.64
49841;BMP280;35738;49.890;5.930;2023-08-24T10:55:26;95804.00;;;22.63
49841;BMP280;35738;49.890;5.930;2023-08-24T10:57:57;95803.91;;;22.93
49841;BMP280;35738;49.890;5.930;2023-08-24T11:00:28;95818.19;;;23.21
49841;BMP280;35738;49.890;5.930;2023-08-24T11:02:56;95842.72;;;23.86
49841;BMP280;35738;49.890;5.930;2023-08-24T11:05:28;95864.03;;;24.79
49841;BMP280;35738;49.890;5.930;2023-08-24T11:08:06;95909.88;;;24.17
49841;BMP280;35738;49.890;5.930;2023-08-24T11:10:45;96041.16;;;22.54
49841;BMP280;35738;49.890;5.930;2023-08-24T11:15:45;96123.13;;;21.69
49841;BMP280;35738;49.890;5.930;2023-08-24T11:18:24;96110.88;;;20.86
49841;BMP280;35738;49.890;5.930;2023-08-24T11:20:59;96117.19;;;20.90
49841;BMP280;35738;49.890;5.930;2023-08-24T11:23:26;96040.59;;;22.32
49841;BMP280;35738;49.890;5.930;2023-08-24T11:25:54;96070.69;;;21.12
49841;BMP280;35738;49.890;5.930;2023-08-24T11:28:27;96031.31;;;21.02
49841;BMP280;35738;49.890;5.930;2023-08-24T11:30:55;96027.09;;;21.20
49841;BMP280;35738;49.890;5.930;2023-08-24T11:33:30;96067.97;;;20.71
49841;BMP280;35738;49.890;5.930;2023-08-24T11:35:57;96087.59;;;20.65
49841;BMP280;35738;49.890;5.930;2023-08-24T11:38:24;96046.09;;;21.14
49841;BMP280;35738;49.890;5.930;2023-08-24T11:40:51;96004.72;;;20.41
49841;BMP280;35738;49.890;5.930;2023-08-24T11:43:24;96014.97;;;20.41
49841;BMP280;35738;49.890;5.930;2023-08-24T11:45:53;96005.13;;;21.18
49841;BMP280;35738;49.890;5.930;2023-08-24T11:48:26;95969.69;;;21.46
49841;BMP280;35738;49.890;5.930;2023-08-24T11:50:57;95949.00;;;20.95
49841;BMP280;35738;49.890;5.930;2023-08-24T11:53:23;95928.16;;;20.63
49841;BMP280;35738;49.890;5.930;2023-08-24T11:55:54;95907.47;;;20.79
49841;BMP280;35738;49.890;5.930;2023-08-24T11:58:31;95891.41;;;20.46
49841;BMP280;35738;49.890;5.930;2023-08-24T12:00:58;95888.06;;;20.07
49841;BMP280;35738;49.890;5.930;2023-08-24T12:03:25;95877.34;;;20.34
49841;BMP280;35738;49.890;5.930;2023-08-24T12:05:51;95872.97;;;20.47
49841;BMP280;35738;49.890;5.930;2023-08-24T12:08:18;95871.28;;;20.16
49841;BMP280;35738;49.890;5.930;2023-08-24T12:10:44;95878.63;;;19.90
49841;BMP280;35738;49.890;5.930;2023-08-24T12:13:12;95874.69;;;21.29
49841;BMP280;35738;49.890;5.930;2023-08-24T12:15:40;95866.25;;;21.72
49841;BMP280;35738;49.890;5.930;2023-08-24T12:18:09;95856.66;;;22.26
49841;BMP280;35738;49.890;5.930;2023-08-24T12:20:35;95856.50;;;22.50
49841;BMP280;35738;49.890;5.930;2023-08-24T12:23:03;95840.13;;;22.22
49841;BMP280;35738;49.890;5.930;2023-08-24T12:25:30;95824.22;;;20.86
49841;BMP280;35738;49.890;5.930;2023-08-24T12:28:14;95810.91;;;21.24
49841;BMP280;35738;49.890;5.930;2023-08-24T12:33:41;95786.31;;;20.53
49841;BMP280;35738;49.890;5.930;2023-08-24T12:36:08;95774.69;;;21.02
49841;BMP280;35738;49.890;5.930;2023-08-24T12:38:34;95776.31;;;20.38
49841;BMP280;35738;49.890;5.930;2023-08-24T12:41:03;95776.78;;;20.54
49841;BMP280;35738;49.890;5.930;2023-08-24T12:43:29;95767.84;;;20.30
49841;BMP280;35738;49.890;5.930;2023-08-24T12:45:56;95751.25;;;20.95
49841;BMP280;35738;49.890;5.930;2023-08-24T12:48:22;95743.72;;;20.95
49841;BMP280;35738;49.890;5.930;2023-08-24T12:50:50;95732.66;;;21.43
49841;BMP280;35738;49.890;5.930;2023-08-24T12:53:16;95728.22;;;21.30
49841;BMP280;35738;49.890;5.930;2023-08-24T12:55:43;95743.09;;;20.71
49841;BMP280;35738;49.890;5.930;2023-08-24T12:58:09;95747.19;;;20.96
49841;BMP280;35738;49.890;5.930;2023-08-24T13:00:36;95767.81;;;21.80
49841;BMP280;35738;49.890;5.930;2023-08-24T13:03:02;95778.75;;;22.37
49841;BMP280;35738;49.890;5.930;2023-08-24T13:05:29;95787.75;;;22.12
49841;BMP280;35738;49.890;5.930;2023-08-24T13:07:58;95798.16;;;21.88
49841;BMP280;35738;49.890;5.930;2023-08-24T13:10:24;95813.00;;;22.06
49841;BMP280;35738;49.890;5.930;2023-08-24T13:12:51;95816.22;;;22.27
49841;BMP280;35738;49.890;5.930;2023-08-24T13:15:18;95820.78;;;21.88
49841;BMP280;35738;49.890;5.930;2023-08-24T13:17:44;95824.56;;;22.03
49841;BMP280;35738;49.890;5.930;2023-08-24T13:20:11;95823.97;;;22.06
49841;BMP280;35738;49.890;5.930;2023-08-24T13:22:37;95835.88;;;21.62
49841;BMP280;35738;49.890;5.930;2023-08-24T13:25:04;95863.38;;;21.40
49841;BMP280;35738;49.890;5.930;2023-08-24T13:27:31;95881.53;;;21.28
49841;BMP280;35738;49.890;5.930;2023-08-24T13:30:01;95897.53;;;21.37
49841;BMP280;35738;49.890;5.930;2023-08-24T13:32:27;95923.59;;;20.69
49841;BMP280;35738;49.890;5.930;2023-08-24T13:34:54;95916.97;;;20.33
49841;BMP280;35738;49.890;5.930;2023-08-24T13:48:41;95888.19;;;20.97
49841;BMP280;35738;49.890;5.930;2023-08-24T13:51:15;95903.22;;;21.45
49841;BMP280;35738;49.890;5.930;2023-08-24T13:53:42;95919.44;;;21.14
49841;BMP280;35738;49.890;5.930;2023-08-24T13:56:12;95919.56;;;20.94
49841;BMP280;35738;49.890;5.930;2023-08-24T13:58:43;95943.44;;;21.39
49841;BMP280;35738;49.890;5.930;2023-08-24T14:01:11;95980.84;;;21.07
49841;BMP280;35738;49.890;5.930;2023-08-24T14:04:03;96001.25;;;21.49
49841;BMP280;35738;49.890;5.930;2023-08-24T14:07:13;95991.41;;;21.87
49841;BMP280;35738;49.890;5.930;2023-08-24T14:09:43;95992.72;;;21.86
49841;BMP280;35738;49.890;5.930;2023-08-24T14:12:30;95971.94;;;21.77
49841;BMP280;35738;49.890;5.930;2023-08-24T14:14:56;95989.66;;;21.99
49841;BMP280;35738;49.890;5.930;2023-08-24T14:28:55;96028.78;;;21.76
49841;BMP280;35738;49.890;5.930;2023-08-24T14:31:28;96072.81;;;21.16
49841;BMP280;35738;49.890;5.930;2023-08-24T14:33:55;96115.47;;;20.40
49841;BMP280;35738;49.890;5.930;2023-08-24T14:36:23;96126.19;;;20.34
49841;BMP280;35738;49.890;5.930;2023-08-24T14:38:50;96116.66;;;20.74
49841;BMP280;35738;49.890;5.930;2023-08-24T14:41:20;96074.22;;;21.38
49841;BMP280;35738;49.890;5.930;2023-08-24T14:43:47;96053.28;;;21.47
49841;BMP280;35738;49.890;5.930;2023-08-24T14:46:13;96057.53;;;21.30